createdAt,value
2022-10-09T00:03:07.309Z,2.15
2022-10-09T00:08:08.752Z,1.90
2022-10-09T00:13:10.961Z,1.92
2022-10-09T00:18:15.518Z,1.88
2022-10-09T00:23:18.332Z,1.65
2022-10-09T00:28:21.184Z,1.88
2022-10-09T00:33:23.015Z,2.20
2022-10-09T00:38:24.531Z,2.03
2022-10-09T00:43:42.385Z,1.90
2022-10-09T00:48:44.203Z,2.10
2022-10-09T00:53:45.648Z,2.60
2022-10-09T00:58:51.700Z,2.70
2022-10-09T01:03:53.248Z,3.05
2022-10-09T01:09:05.073Z,2.70
2022-10-09T01:14:19.486Z,2.58
2022-10-09T01:19:45.823Z,2.40
2022-10-09T01:25:14.462Z,2.97
2022-10-09T01:30:16.031Z,2.40
2022-10-09T01:35:18.094Z,2.60
2022-10-09T01:40:21.439Z,3.15
2022-10-09T01:45:23.011Z,3.03
2022-10-09T01:50:32.796Z,2.90
2022-10-09T01:55:47.111Z,2.53
2022-10-09T02:00:59.497Z,3.22
2022-10-09T02:06:03.786Z,3.08
2022-10-09T02:11:06.417Z,3.47
2022-10-09T02:16:28.327Z,2.80
2022-10-09T02:21:40.159Z,3.30
2022-10-09T02:26:42.591Z,3.13
2022-10-09T02:31:44.760Z,2.80
2022-10-09T02:36:47.013Z,3.05
2022-10-09T02:41:48.447Z,3.10
2022-10-09T02:46:50.066Z,3.17
2022-10-09T02:51:51.585Z,3.15
2022-10-09T02:56:52.993Z,4.05
2022-10-09T03:01:54.522Z,3.50
2022-10-09T03:06:56.012Z,3.53
2022-10-09T03:11:57.564Z,4.10
2022-10-09T03:16:59.198Z,4.90
2022-10-09T03:22:00.598Z,4.45
2022-10-09T03:27:02.109Z,3.92
2022-10-09T03:32:03.788Z,4.13
2022-10-09T03:37:05.255Z,3.65
2022-10-09T03:42:06.777Z,5.15
2022-10-09T03:47:08.365Z,6.93
2022-10-09T03:52:09.852Z,4.63
2022-10-09T03:57:11.287Z,5.45
2022-10-09T04:02:12.736Z,5.40
2022-10-09T04:07:14.265Z,5.93
2022-10-09T04:12:15.821Z,4.25
2022-10-09T04:17:17.331Z,5.72
2022-10-09T04:22:18.984Z,4.38
2022-10-09T04:27:20.445Z,5.88
2022-10-09T04:32:21.964Z,5.63
2022-10-09T04:37:23.456Z,6.70
2022-10-09T04:42:24.917Z,7.47
2022-10-09T04:47:26.394Z,7.25
2022-10-09T04:52:27.864Z,6.07
2022-10-09T04:57:29.761Z,5.22
2022-10-09T05:02:31.377Z,6.47
2022-10-09T05:07:32.962Z,5.28
2022-10-09T05:12:34.436Z,5.40
2022-10-09T05:17:35.986Z,4.60
2022-10-09T05:22:37.511Z,5.50
2022-10-09T05:27:39.569Z,5.60
2022-10-09T05:32:41.011Z,5.43
2022-10-09T05:37:44.808Z,6.18
2022-10-09T05:42:49.671Z,5.07
2022-10-09T05:47:51.525Z,5.50
2022-10-09T05:52:52.982Z,5.60
2022-10-09T05:57:54.524Z,5.57
2022-10-09T06:02:56.047Z,5.25
2022-10-09T06:07:57.623Z,5.10
2022-10-09T06:12:59.074Z,5.53
2022-10-09T06:18:00.505Z,4.53
2022-10-09T06:23:01.948Z,4.03
2022-10-09T06:28:03.434Z,3.70
2022-10-09T06:33:04.895Z,3.03
2022-10-09T06:38:06.553Z,3.28
2022-10-09T06:43:08.228Z,2.85
2022-10-09T06:48:09.689Z,2.47
2022-10-09T06:53:11.138Z,2.40
2022-10-09T06:58:12.578Z,2.83
2022-10-09T07:03:15.277Z,3.17
2022-10-09T07:08:16.772Z,3.38
2022-10-09T07:13:18.195Z,2.58
2022-10-09T07:18:19.663Z,4.10
2022-10-09T07:23:21.132Z,3.22
2022-10-09T07:28:23.731Z,3.10
2022-10-09T07:33:25.211Z,3.75
2022-10-09T07:38:26.933Z,2.72
2022-10-09T07:43:28.981Z,2.92
2022-10-09T07:48:30.845Z,3.15
2022-10-09T07:53:35.797Z,3.17
2022-10-09T07:58:37.502Z,2.47
2022-10-09T08:03:39.001Z,2.15
2022-10-09T08:08:40.525Z,2.03
2022-10-09T08:13:42.998Z,2.92
2022-10-09T08:18:47.841Z,2.22
2022-10-09T08:23:55.259Z,2.00
2022-10-09T08:28:59.941Z,2.35
2022-10-09T08:34:03.236Z,2.00
2022-10-09T08:39:04.703Z,2.33
2022-10-09T08:44:26.789Z,2.33
2022-10-09T08:49:28.246Z,2.58
2022-10-09T08:54:38.180Z,2.60
2022-10-09T08:59:39.901Z,2.33
2022-10-09T09:05:06.556Z,2.80
2022-10-09T09:10:31.416Z,2.08
2022-10-09T09:15:53.434Z,1.90
2022-10-09T09:20:58.507Z,2.20
2022-10-09T09:26:01.182Z,2.05
2022-10-09T09:31:25.458Z,2.50
2022-10-09T09:36:42.470Z,2.17
2022-10-09T09:41:44.349Z,2.80
2022-10-09T09:46:47.639Z,2.00
2022-10-09T09:51:50.610Z,2.00
2022-10-09T09:57:18.268Z,2.10
2022-10-09T10:02:24.227Z,1.90
2022-10-09T10:07:29.276Z,2.40
2022-10-09T10:12:30.821Z,1.50
2022-10-09T10:17:34.822Z,1.65
2022-10-09T10:22:36.384Z,1.80
2022-10-09T10:27:41.901Z,2.42
2022-10-09T10:33:02.196Z,1.40
2022-10-09T10:43:09.477Z,1.73
2022-10-09T10:48:40.128Z,1.55
2022-10-09T10:53:50.064Z,1.60
2022-10-09T10:59:04.000Z,1.80
2022-10-09T11:04:21.338Z,1.40
2022-10-09T11:09:36.060Z,2.55
2022-10-09T11:15:06.848Z,1.67
2022-10-09T11:20:19.384Z,1.75
2022-10-09T11:25:27.431Z,1.50
2022-10-09T11:30:37.715Z,1.27
2022-10-09T11:35:50.215Z,1.08
2022-10-09T11:40:52.806Z,1.20
2022-10-09T11:46:00.414Z,1.20
2022-10-09T11:51:12.654Z,1.55
2022-10-09T11:56:32.130Z,1.67
2022-10-09T12:01:42.967Z,1.35
2022-10-09T12:06:50.959Z,1.45
2022-10-09T12:11:59.573Z,1.30
2022-10-09T12:17:01.458Z,1.45
2022-10-09T12:22:27.349Z,1.30
2022-10-09T12:27:33.479Z,1.42
2022-10-09T12:33:02.360Z,1.25
2022-10-09T12:38:24.201Z,1.25
2022-10-09T12:43:25.814Z,1.20
2022-10-09T12:48:29.204Z,1.30
2022-10-09T12:53:30.799Z,1.90
2022-10-09T12:58:39.345Z,1.23
2022-10-09T13:03:43.627Z,0.90
2022-10-09T13:08:46.334Z,0.93
2022-10-09T13:13:55.103Z,1.10
2022-10-09T13:18:59.251Z,1.10
2022-10-09T13:24:08.094Z,0.98
2022-10-09T13:29:11.321Z,1.33
2022-10-09T13:34:14.029Z,1.05
2022-10-09T13:39:15.697Z,1.05
2022-10-09T13:44:17.278Z,1.27
2022-10-09T13:49:18.845Z,1.20
2022-10-09T13:54:20.363Z,0.88
2022-10-09T13:59:21.898Z,0.77
2022-10-09T14:04:23.410Z,1.10
2022-10-09T14:09:24.950Z,1.33
2022-10-09T14:14:27.965Z,0.80
2022-10-09T14:19:29.465Z,1.35
2022-10-09T14:24:30.979Z,0.88
2022-10-09T14:29:32.532Z,0.98
2022-10-09T14:34:33.966Z,0.80
2022-10-09T14:39:35.675Z,0.80
2022-10-09T14:44:37.164Z,0.70
2022-10-09T14:49:42.047Z,1.15
2022-10-09T14:54:46.225Z,1.38
2022-10-09T14:59:48.198Z,1.02
2022-10-09T15:04:51.112Z,1.15
2022-10-09T15:09:55.167Z,0.70
2022-10-09T15:14:59.989Z,0.95
2022-10-09T15:20:01.784Z,1.35
2022-10-09T15:25:03.299Z,1.00
2022-10-09T15:30:05.189Z,0.80
2022-10-09T15:35:07.478Z,1.23
2022-10-09T15:40:11.687Z,1.25
2022-10-09T15:45:13.346Z,0.77
2022-10-09T15:50:17.167Z,0.98
2022-10-09T15:55:18.694Z,1.02
2022-10-09T16:00:20.229Z,1.20
2022-10-09T16:05:29.791Z,1.13
2022-10-09T16:10:31.505Z,2.00
2022-10-09T16:15:42.292Z,0.95
2022-10-09T16:20:47.447Z,1.30
2022-10-09T16:26:02.696Z,1.10
2022-10-09T16:31:05.241Z,0.93
2022-10-09T16:36:24.019Z,2.67
2022-10-09T16:41:27.205Z,1.38
2022-10-09T16:51:36.439Z,2.42
2022-10-09T16:56:39.995Z,1.88
2022-10-09T17:01:46.107Z,1.85
2022-10-09T17:06:47.591Z,1.05
2022-10-09T17:11:49.111Z,1.02
2022-10-09T17:16:52.847Z,1.10
2022-10-09T17:21:54.260Z,1.42
2022-10-09T17:26:55.794Z,1.05
2022-10-09T17:31:57.249Z,3.50
2022-10-09T17:36:58.723Z,2.42
2022-10-09T17:42:00.177Z,2.13
2022-10-09T17:47:02.772Z,1.60
2022-10-09T17:52:07.097Z,1.65
2022-10-09T17:57:12.337Z,1.55
2022-10-09T18:02:14.255Z,1.83
2022-10-09T18:07:20.323Z,1.50
2022-10-09T18:12:22.024Z,1.65
2022-10-09T18:17:23.517Z,1.73
2022-10-09T18:22:25.098Z,2.08
2022-10-09T18:27:29.289Z,2.65
2022-10-09T18:32:31.499Z,2.13
2022-10-09T18:37:34.478Z,2.45
2022-10-09T18:42:36.408Z,15.65
2022-10-09T18:47:41.129Z,2.75
2022-10-09T18:52:43.830Z,1.80
2022-10-09T18:57:47.333Z,2.30
2022-10-09T19:02:48.756Z,2.28
2022-10-09T19:07:50.585Z,2.20
2022-10-09T19:12:54.295Z,2.20
2022-10-09T19:17:55.966Z,1.75
2022-10-09T19:22:57.444Z,2.40
2022-10-09T19:27:59.034Z,2.00
2022-10-09T19:33:00.541Z,2.00
2022-10-09T19:38:03.222Z,2.40
2022-10-09T19:43:04.735Z,2.28
2022-10-09T19:48:06.737Z,2.40
2022-10-09T19:53:08.227Z,2.22
2022-10-09T19:58:09.754Z,2.65
2022-10-09T20:03:11.341Z,3.97
2022-10-09T20:08:15.531Z,2.58
2022-10-09T20:13:16.987Z,2.80
2022-10-09T20:18:18.446Z,2.60
2022-10-09T20:23:20.615Z,8.73
2022-10-09T20:28:22.104Z,3.38
2022-10-09T20:33:23.689Z,2.17
2022-10-09T20:38:26.061Z,2.67
2022-10-09T20:43:27.612Z,2.60
2022-10-09T20:48:29.039Z,2.33
2022-10-09T20:53:30.871Z,2.50
2022-10-09T20:58:32.583Z,2.47
2022-10-09T21:03:35.493Z,2.67
2022-10-09T21:08:37.793Z,2.28
2022-10-09T21:13:42.040Z,3.05
2022-10-09T21:18:43.626Z,2.03
2022-10-09T21:23:46.104Z,3.00
2022-10-09T21:28:47.931Z,2.60
2022-10-09T21:33:50.565Z,2.60
2022-10-09T21:38:52.067Z,3.42
2022-10-09T21:43:53.574Z,2.78
2022-10-09T21:48:55.085Z,3.03
2022-10-09T21:53:56.572Z,2.70
2022-10-09T21:58:58.215Z,2.60
2022-10-09T22:03:59.813Z,2.78
2022-10-09T22:09:01.262Z,2.88
2022-10-09T22:14:04.166Z,3.20
2022-10-09T22:19:05.651Z,2.63
2022-10-09T22:24:07.262Z,2.60
2022-10-09T22:29:08.752Z,2.00
2022-10-09T22:34:10.201Z,2.40
2022-10-09T22:39:12.452Z,2.08
2022-10-09T22:44:14.237Z,2.20
2022-10-09T22:49:16.868Z,3.13
2022-10-09T22:54:19.131Z,2.95
2022-10-09T22:59:20.656Z,1.83
2022-10-09T23:04:23.220Z,2.53
2022-10-09T23:09:28.855Z,2.35
2022-10-09T23:14:30.416Z,2.88
2022-10-09T23:19:34.230Z,3.15
2022-10-09T23:24:35.683Z,2.10
2022-10-09T23:29:37.306Z,2.53
2022-10-09T23:34:38.805Z,2.30
2022-10-09T23:39:40.348Z,2.40
2022-10-09T23:44:42.216Z,2.95
2022-10-09T23:49:43.646Z,2.42
2022-10-09T23:54:45.121Z,2.50
2022-10-09T23:59:46.536Z,2.75
